sensor_id;sensor_type;location;lat;lon;timestamp;P1;durP1;ratioP1;P2;durP2;ratioP2
2622;SDS011;1321;48.690;9.022;2024-03-29T00:01:34;1.33;;;1.30;;
2622;SDS011;1321;48.690;9.022;2024-03-29T00:04:01;1.20;;;1.10;;
2622;SDS011;1321;48.690;9.022;2024-03-29T00:06:27;1.27;;;1.20;;
2622;SDS011;1321;48.690;9.022;2024-03-29T00:08:54;1.20;;;1.10;;
2622;SDS011;1321;48.690;9.022;2024-03-29T00:11:20;2.63;;;1.20;;
2622;SDS011;1321;48.690;9.022;2024-03-29T00:13:48;1.37;;;1.20;;
2622;SDS011;1321;48.690;9.022;2024-03-29T00:16:14;2.50;;;1.20;;
2622;SDS011;1321;48.690;9.022;2024-03-29T00:18:41;1.50;;;1.20;;
2622;SDS011;1321;48.690;9.022;2024-03-29T00:21:07;1.77;;;1.50;;
2622;SDS011;1321;48.690;9.022;2024-03-29T00:23:33;1.20;;;1.20;;
2622;SDS011;1321;48.690;9.022;2024-03-29T00:26:00;1.20;;;1.10;;
2622;SDS011;1321;48.690;9.022;2024-03-29T00:28:26;1.73;;;1.63;;
2622;SDS011;1321;48.690;9.022;2024-03-29T00:30:54;1.63;;;1.53;;
2622;SDS011;1321;48.690;9.022;2024-03-29T00:33:21;2.33;;;1.60;;
2622;SDS011;1321;48.690;9.022;2024-03-29T00:35:47;1.40;;;1.30;;
2622;SDS011;1321;48.690;9.022;2024-03-29T00:38:13;1.60;;;1.50;;
2622;SDS011;1321;48.690;9.022;2024-03-29T00:40:40;1.10;;;1.10;;
2622;SDS011;1321;48.690;9.022;2024-03-29T00:43:06;1.20;;;1.20;;
2622;SDS011;1321;48.690;9.022;2024-03-29T00:45:33;1.10;;;1.10;;
2622;SDS011;1321;48.690;9.022;2024-03-29T00:48:01;1.50;;;1.40;;
2622;SDS011;1321;48.690;9.022;2024-03-29T00:50:28;1.17;;;1.17;;
2622;SDS011;1321;48.690;9.022;2024-03-29T00:52:54;1.40;;;1.13;;
2622;SDS011;1321;48.690;9.022;2024-03-29T00:55:21;1.30;;;1.20;;
2622;SDS011;1321;48.690;9.022;2024-03-29T00:57:47;1.80;;;1.10;;
2622;SDS011;1321;48.690;9.022;2024-03-29T01:00:14;1.20;;;1.20;;
2622;SDS011;1321;48.690;9.022;2024-03-29T01:02:40;1.40;;;1.30;;
2622;SDS011;1321;48.690;9.022;2024-03-29T01:05:08;1.60;;;1.40;;
2622;SDS011;1321;48.690;9.022;2024-03-29T01:07:34;1.50;;;1.40;;
2622;SDS011;1321;48.690;9.022;2024-03-29T01:10:01;1.33;;;1.23;;
2622;SDS011;1321;48.690;9.022;2024-03-29T01:12:27;1.10;;;1.10;;
2622;SDS011;1321;48.690;9.022;2024-03-29T01:14:54;1.23;;;1.20;;
2622;SDS011;1321;48.690;9.022;2024-03-29T01:17:20;1.30;;;1.20;;
2622;SDS011;1321;48.690;9.022;2024-03-29T01:19:46;1.63;;;1.53;;
2622;SDS011;1321;48.690;9.022;2024-03-29T01:22:14;1.20;;;1.10;;
2622;SDS011;1321;48.690;9.022;2024-03-29T01:24:41;1.30;;;1.20;;
2622;SDS011;1321;48.690;9.022;2024-03-29T01:27:07;1.13;;;1.10;;
2622;SDS011;1321;48.690;9.022;2024-03-29T01:29:33;1.20;;;1.20;;
2622;SDS011;1321;48.690;9.022;2024-03-29T01:32:00;1.10;;;1.10;;
2622;SDS011;1321;48.690;9.022;2024-03-29T01:34:26;1.20;;;1.20;;
2622;SDS011;1321;48.690;9.022;2024-03-29T01:36:53;1.20;;;1.20;;
2622;SDS011;1321;48.690;9.022;2024-03-29T01:39:20;1.17;;;1.17;;
2622;SDS011;1321;48.690;9.022;2024-03-29T01:41:47;1.10;;;1.10;;
2622;SDS011;1321;48.690;9.022;2024-03-29T01:44:13;1.20;;;1.20;;
2622;SDS011;1321;48.690;9.022;2024-03-29T01:46:43;1.30;;;1.20;;
2622;SDS011;1321;48.690;9.022;2024-03-29T01:49:12;1.10;;;1.10;;
2622;SDS011;1321;48.690;9.022;2024-03-29T01:51:40;1.20;;;1.10;;
2622;SDS011;1321;48.690;9.022;2024-03-29T01:54:08;1.30;;;1.20;;
2622;SDS011;1321;48.690;9.022;2024-03-29T01:56:38;1.40;;;1.30;;
2622;SDS011;1321;48.690;9.022;2024-03-29T01:59:08;1.10;;;1.10;;
2622;SDS011;1321;48.690;9.022;2024-03-29T02:01:40;1.40;;;1.03;;
2622;SDS011;1321;48.690;9.022;2024-03-29T02:04:08;1.20;;;1.20;;
2622;SDS011;1321;48.690;9.022;2024-03-29T02:06:36;1.10;;;1.10;;
2622;SDS011;1321;48.690;9.022;2024-03-29T02:09:04;1.13;;;1.13;;
2622;SDS011;1321;48.690;9.022;2024-03-29T02:11:30;5.17;;;1.40;;
2622;SDS011;1321;48.690;9.022;2024-03-29T02:13:59;1.37;;;1.27;;
2622;SDS011;1321;48.690;9.022;2024-03-29T02:16:27;1.27;;;1.17;;
2622;SDS011;1321;48.690;9.022;2024-03-29T02:18:54;1.10;;;1.10;;
2622;SDS011;1321;48.690;9.022;2024-03-29T02:21:22;1.27;;;1.00;;
2622;SDS011;1321;48.690;9.022;2024-03-29T02:23:57;1.20;;;1.20;;
2622;SDS011;1321;48.690;9.022;2024-03-29T02:26:26;1.60;;;1.10;;
2622;SDS011;1321;48.690;9.022;2024-03-29T02:28:57;1.00;;;1.00;;
2622;SDS011;1321;48.690;9.022;2024-03-29T02:31:24;1.13;;;1.13;;
2622;SDS011;1321;48.690;9.022;2024-03-29T02:33:52;1.00;;;1.00;;
2622;SDS011;1321;48.690;9.022;2024-03-29T02:36:19;1.10;;;1.10;;
2622;SDS011;1321;48.690;9.022;2024-03-29T02:38:46;1.30;;;1.20;;
2622;SDS011;1321;48.690;9.022;2024-03-29T02:41:15;1.10;;;1.10;;
2622;SDS011;1321;48.690;9.022;2024-03-29T02:43:43;1.10;;;1.10;;
2622;SDS011;1321;48.690;9.022;2024-03-29T02:46:10;1.73;;;1.10;;
2622;SDS011;1321;48.690;9.022;2024-03-29T02:48:37;1.20;;;1.10;;
2622;SDS011;1321;48.690;9.022;2024-03-29T02:51:04;1.10;;;1.10;;
2622;SDS011;1321;48.690;9.022;2024-03-29T02:53:31;1.00;;;1.00;;
2622;SDS011;1321;48.690;9.022;2024-03-29T02:55:57;1.10;;;1.10;;
2622;SDS011;1321;48.690;9.022;2024-03-29T02:58:26;1.20;;;1.20;;
2622;SDS011;1321;48.690;9.022;2024-03-29T03:00:52;1.57;;;1.10;;
2622;SDS011;1321;48.690;9.022;2024-03-29T03:03:20;1.00;;;1.00;;
2622;SDS011;1321;48.690;9.022;2024-03-29T03:05:49;1.00;;;1.00;;
2622;SDS011;1321;48.690;9.022;2024-03-29T03:08:17;1.33;;;1.10;;
2622;SDS011;1321;48.690;9.022;2024-03-29T03:11:03;1.40;;;1.30;;
2622;SDS011;1321;48.690;9.022;2024-03-29T03:13:32;1.67;;;1.03;;
2622;SDS011;1321;48.690;9.022;2024-03-29T03:15:59;1.27;;;1.20;;
2622;SDS011;1321;48.690;9.022;2024-03-29T03:18:27;1.00;;;1.00;;
2622;SDS011;1321;48.690;9.022;2024-03-29T03:20:54;1.20;;;1.20;;
2622;SDS011;1321;48.690;9.022;2024-03-29T03:23:23;2.20;;;1.30;;
2622;SDS011;1321;48.690;9.022;2024-03-29T03:25:54;1.20;;;1.20;;
2622;SDS011;1321;48.690;9.022;2024-03-29T03:28:20;1.20;;;1.10;;
2622;SDS011;1321;48.690;9.022;2024-03-29T03:30:49;1.30;;;1.30;;
2622;SDS011;1321;48.690;9.022;2024-03-29T03:33:16;1.20;;;1.20;;
2622;SDS011;1321;48.690;9.022;2024-03-29T03:35:44;1.20;;;1.20;;
2622;SDS011;1321;48.690;9.022;2024-03-29T03:38:10;1.10;;;1.10;;
2622;SDS011;1321;48.690;9.022;2024-03-29T03:40:41;1.23;;;1.20;;
2622;SDS011;1321;48.690;9.022;2024-03-29T03:43:08;1.40;;;1.30;;
2622;SDS011;1321;48.690;9.022;2024-03-29T03:45:36;1.30;;;1.30;;
2622;SDS011;1321;48.690;9.022;2024-03-29T03:48:04;1.20;;;1.20;;
2622;SDS011;1321;48.690;9.022;2024-03-29T03:50:32;1.20;;;1.20;;
2622;SDS011;1321;48.690;9.022;2024-03-29T03:52:59;1.40;;;1.30;;
2622;SDS011;1321;48.690;9.022;2024-03-29T03:55:26;1.67;;;1.40;;
2622;SDS011;1321;48.690;9.022;2024-03-29T03:57:53;1.30;;;1.30;;
2622;SDS011;1321;48.690;9.022;2024-03-29T04:00:20;1.90;;;1.80;;
2622;SDS011;1321;48.690;9.022;2024-03-29T04:02:47;1.30;;;1.20;;
2622;SDS011;1321;48.690;9.022;2024-03-29T04:05:17;1.10;;;1.10;;
2622;SDS011;1321;48.690;9.022;2024-03-29T04:07:43;2.10;;;1.10;;
2622;SDS011;1321;48.690;9.022;2024-03-29T04:10:11;1.47;;;1.47;;
2622;SDS011;1321;48.690;9.022;2024-03-29T04:12:37;1.33;;;1.10;;
2622;SDS011;1321;48.690;9.022;2024-03-29T04:15:05;1.10;;;1.10;;
2622;SDS011;1321;48.690;9.022;2024-03-29T04:17:32;1.10;;;1.10;;
2622;SDS011;1321;48.690;9.022;2024-03-29T04:19:59;1.00;;;1.00;;
2622;SDS011;1321;48.690;9.022;2024-03-29T04:22:28;1.43;;;1.00;;
2622;SDS011;1321;48.690;9.022;2024-03-29T04:24:56;1.27;;;1.17;;
2622;SDS011;1321;48.690;9.022;2024-03-29T04:27:22;1.50;;;1.33;;
2622;SDS011;1321;48.690;9.022;2024-03-29T04:29:50;1.20;;;1.20;;
2622;SDS011;1321;48.690;9.022;2024-03-29T04:32:17;1.30;;;1.20;;
2622;SDS011;1321;48.690;9.022;2024-03-29T04:34:46;1.20;;;1.10;;
2622;SDS011;1321;48.690;9.022;2024-03-29T04:37:13;1.07;;;1.07;;
2622;SDS011;1321;48.690;9.022;2024-03-29T04:39:42;1.20;;;1.10;;
2622;SDS011;1321;48.690;9.022;2024-03-29T04:42:10;1.30;;;1.20;;
2622;SDS011;1321;48.690;9.022;2024-03-29T04:44:38;1.33;;;1.03;;
2622;SDS011;1321;48.690;9.022;2024-03-29T04:47:05;4.90;;;3.20;;
2622;SDS011;1321;48.690;9.022;2024-03-29T04:49:33;2.80;;;2.60;;
2622;SDS011;1321;48.690;9.022;2024-03-29T04:52:02;3.20;;;2.43;;
2622;SDS011;1321;48.690;9.022;2024-03-29T04:54:30;4.00;;;2.17;;
2622;SDS011;1321;48.690;9.022;2024-03-29T04:56:59;4.10;;;2.37;;
2622;SDS011;1321;48.690;9.022;2024-03-29T04:59:28;2.90;;;2.23;;
2622;SDS011;1321;48.690;9.022;2024-03-29T05:01:58;2.10;;;2.00;;
2622;SDS011;1321;48.690;9.022;2024-03-29T05:04:26;1.30;;;1.20;;
2622;SDS011;1321;48.690;9.022;2024-03-29T05:06:54;2.00;;;1.30;;
2622;SDS011;1321;48.690;9.022;2024-03-29T05:09:22;1.60;;;1.50;;
2622;SDS011;1321;48.690;9.022;2024-03-29T05:11:50;1.70;;;1.60;;
2622;SDS011;1321;48.690;9.022;2024-03-29T05:14:19;1.60;;;1.50;;
2622;SDS011;1321;48.690;9.022;2024-03-29T05:16:48;2.20;;;1.60;;
2622;SDS011;1321;48.690;9.022;2024-03-29T05:19:15;1.30;;;1.20;;
2622;SDS011;1321;48.690;9.022;2024-03-29T05:21:43;1.77;;;1.60;;
2622;SDS011;1321;48.690;9.022;2024-03-29T05:24:10;1.50;;;1.40;;
2622;SDS011;1321;48.690;9.022;2024-03-29T05:26:37;1.80;;;1.23;;
2622;SDS011;1321;48.690;9.022;2024-03-29T05:29:05;1.13;;;1.13;;
2622;SDS011;1321;48.690;9.022;2024-03-29T05:31:34;1.40;;;1.30;;
2622;SDS011;1321;48.690;9.022;2024-03-29T05:34:02;1.40;;;1.40;;
2622;SDS011;1321;48.690;9.022;2024-03-29T05:36:30;1.23;;;1.23;;
2622;SDS011;1321;48.690;9.022;2024-03-29T05:38:57;1.67;;;1.57;;
2622;SDS011;1321;48.690;9.022;2024-03-29T05:41:25;1.60;;;1.50;;
2622;SDS011;1321;48.690;9.022;2024-03-29T05:43:53;1.47;;;1.37;;
2622;SDS011;1321;48.690;9.022;2024-03-29T05:46:20;1.50;;;1.40;;
2622;SDS011;1321;48.690;9.022;2024-03-29T05:48:49;2.03;;;1.93;;
2622;SDS011;1321;48.690;9.022;2024-03-29T05:51:16;1.50;;;1.40;;
2622;SDS011;1321;48.690;9.022;2024-03-29T05:53:43;1.27;;;1.23;;
2622;SDS011;1321;48.690;9.022;2024-03-29T05:56:11;1.30;;;1.20;;
2622;SDS011;1321;48.690;9.022;2024-03-29T05:58:38;1.23;;;1.23;;
2622;SDS011;1321;48.690;9.022;2024-03-29T06:01:06;1.50;;;1.40;;
2622;SDS011;1321;48.690;9.022;2024-03-29T06:03:34;2.40;;;1.40;;
2622;SDS011;1321;48.690;9.022;2024-03-29T06:06:06;2.23;;;1.13;;
2622;SDS011;1321;48.690;9.022;2024-03-29T06:08:35;1.20;;;1.20;;
2622;SDS011;1321;48.690;9.022;2024-03-29T06:11:03;1.40;;;1.30;;
2622;SDS011;1321;48.690;9.022;2024-03-29T06:13:30;1.53;;;1.20;;
2622;SDS011;1321;48.690;9.022;2024-03-29T06:16:11;1.47;;;1.37;;
2622;SDS011;1321;48.690;9.022;2024-03-29T06:18:59;2.33;;;2.23;;
2622;SDS011;1321;48.690;9.022;2024-03-29T06:21:27;1.97;;;1.40;;
2622;SDS011;1321;48.690;9.022;2024-03-29T06:23:57;1.97;;;1.87;;
2622;SDS011;1321;48.690;9.022;2024-03-29T06:26:25;1.30;;;1.20;;
2622;SDS011;1321;48.690;9.022;2024-03-29T06:28:52;1.83;;;1.70;;
2622;SDS011;1321;48.690;9.022;2024-03-29T06:31:19;3.33;;;3.03;;
2622;SDS011;1321;48.690;9.022;2024-03-29T06:33:47;1.80;;;1.70;;
2622;SDS011;1321;48.690;9.022;2024-03-29T06:36:14;1.80;;;1.70;;
2622;SDS011;1321;48.690;9.022;2024-03-29T06:38:43;1.70;;;1.60;;
2622;SDS011;1321;48.690;9.022;2024-03-29T06:41:11;1.60;;;1.50;;
2622;SDS011;1321;48.690;9.022;2024-03-29T06:43:40;1.50;;;1.40;;
2622;SDS011;1321;48.690;9.022;2024-03-29T06:46:09;1.87;;;1.67;;
2622;SDS011;1321;48.690;9.022;2024-03-29T06:48:36;1.40;;;1.40;;
2622;SDS011;1321;48.690;9.022;2024-03-29T06:51:04;1.40;;;1.30;;
2622;SDS011;1321;48.690;9.022;2024-03-29T06:53:32;1.40;;;1.30;;
2622;SDS011;1321;48.690;9.022;2024-03-29T06:56:02;1.30;;;1.20;;
2622;SDS011;1321;48.690;9.022;2024-03-29T06:58:29;1.30;;;1.20;;
2622;SDS011;1321;48.690;9.022;2024-03-29T07:00:57;1.50;;;1.40;;
2622;SDS011;1321;48.690;9.022;2024-03-29T07:03:24;1.27;;;1.20;;
2622;SDS011;1321;48.690;9.022;2024-03-29T07:05:52;1.27;;;1.20;;
2622;SDS011;1321;48.690;9.022;2024-03-29T07:08:19;1.30;;;1.20;;
2622;SDS011;1321;48.690;9.022;2024-03-29T07:10:46;1.60;;;1.50;;
2622;SDS011;1321;48.690;9.022;2024-03-29T07:13:15;1.73;;;1.63;;
2622;SDS011;1321;48.690;9.022;2024-03-29T07:15:50;1.50;;;1.40;;
2622;SDS011;1321;48.690;9.022;2024-03-29T07:18:18;1.40;;;1.20;;
2622;SDS011;1321;48.690;9.022;2024-03-29T07:20:45;1.30;;;1.20;;
2622;SDS011;1321;48.690;9.022;2024-03-29T07:23:13;1.10;;;1.10;;
2622;SDS011;1321;48.690;9.022;2024-03-29T07:25:41;4.00;;;1.50;;
2622;SDS011;1321;48.690;9.022;2024-03-29T07:28:10;1.37;;;1.30;;
2622;SDS011;1321;48.690;9.022;2024-03-29T07:30:41;1.40;;;1.40;;
2622;SDS011;1321;48.690;9.022;2024-03-29T07:33:09;1.30;;;1.20;;
2622;SDS011;1321;48.690;9.022;2024-03-29T07:35:40;1.52;;;1.42;;
2622;SDS011;1321;48.690;9.022;2024-03-29T07:38:08;1.50;;;1.40;;
2622;SDS011;1321;48.690;9.022;2024-03-29T07:40:37;1.77;;;1.50;;
2622;SDS011;1321;48.690;9.022;2024-03-29T07:43:05;1.70;;;1.60;;
2622;SDS011;1321;48.690;9.022;2024-03-29T07:45:32;1.57;;;1.30;;
2622;SDS011;1321;48.690;9.022;2024-03-29T07:48:01;1.90;;;1.80;;
2622;SDS011;1321;48.690;9.022;2024-03-29T07:50:29;4.20;;;2.03;;
2622;SDS011;1321;48.690;9.022;2024-03-29T07:52:59;1.70;;;1.60;;
2622;SDS011;1321;48.690;9.022;2024-03-29T07:55:27;1.40;;;1.30;;
2622;SDS011;1321;48.690;9.022;2024-03-29T07:57:54;1.43;;;1.33;;
2622;SDS011;1321;48.690;9.022;2024-03-29T08:00:22;1.60;;;1.50;;
2622;SDS011;1321;48.690;9.022;2024-03-29T08:02:49;1.50;;;1.40;;
2622;SDS011;1321;48.690;9.022;2024-03-29T08:05:20;1.20;;;1.20;;
2622;SDS011;1321;48.690;9.022;2024-03-29T08:07:48;1.20;;;1.20;;
2622;SDS011;1321;48.690;9.022;2024-03-29T08:10:20;1.40;;;1.20;;
2622;SDS011;1321;48.690;9.022;2024-03-29T08:12:48;1.33;;;1.23;;
2622;SDS011;1321;48.690;9.022;2024-03-29T08:15:16;1.40;;;1.30;;
2622;SDS011;1321;48.690;9.022;2024-03-29T08:17:43;1.30;;;1.20;;
2622;SDS011;1321;48.690;9.022;2024-03-29T08:20:11;1.50;;;1.40;;
2622;SDS011;1321;48.690;9.022;2024-03-29T08:22:40;1.40;;;1.30;;
2622;SDS011;1321;48.690;9.022;2024-03-29T08:25:08;1.60;;;1.50;;
2622;SDS011;1321;48.690;9.022;2024-03-29T08:27:35;1.40;;;1.40;;
2622;SDS011;1321;48.690;9.022;2024-03-29T08:30:03;1.23;;;1.23;;
2622;SDS011;1321;48.690;9.022;2024-03-29T08:32:31;3.03;;;2.83;;
2622;SDS011;1321;48.690;9.022;2024-03-29T08:34:59;1.70;;;1.60;;
2622;SDS011;1321;48.690;9.022;2024-03-29T08:37:27;1.60;;;1.50;;
2622;SDS011;1321;48.690;9.022;2024-03-29T08:39:57;1.30;;;1.30;;
2622;SDS011;1321;48.690;9.022;2024-03-29T08:42:24;1.50;;;1.40;;
2622;SDS011;1321;48.690;9.022;2024-03-29T08:44:51;1.53;;;1.43;;
2622;SDS011;1321;48.690;9.022;2024-03-29T08:47:19;1.97;;;1.87;;
2622;SDS011;1321;48.690;9.022;2024-03-29T08:49:46;1.80;;;1.70;;
2622;SDS011;1321;48.690;9.022;2024-03-29T08:52:14;2.20;;;2.00;;
2622;SDS011;1321;48.690;9.022;2024-03-29T08:54:43;2.23;;;2.13;;
2622;SDS011;1321;48.690;9.022;2024-03-29T08:57:11;1.93;;;1.83;;
2622;SDS011;1321;48.690;9.022;2024-03-29T08:59:39;2.30;;;2.10;;
2622;SDS011;1321;48.690;9.022;2024-03-29T09:02:06;4.20;;;2.57;;
2622;SDS011;1321;48.690;9.022;2024-03-29T09:04:34;2.70;;;2.50;;
2622;SDS011;1321;48.690;9.022;2024-03-29T09:07:01;3.70;;;3.50;;
2622;SDS011;1321;48.690;9.022;2024-03-29T09:09:29;2.80;;;2.60;;
2622;SDS011;1321;48.690;9.022;2024-03-29T09:11:56;3.43;;;1.93;;
2622;SDS011;1321;48.690;9.022;2024-03-29T09:14:25;2.30;;;2.13;;
2622;SDS011;1321;48.690;9.022;2024-03-29T09:16:53;2.43;;;2.00;;
2622;SDS011;1321;48.690;9.022;2024-03-29T09:19:20;2.23;;;2.13;;
2622;SDS011;1321;48.690;9.022;2024-03-29T09:21:47;2.40;;;2.20;;
2622;SDS011;1321;48.690;9.022;2024-03-29T09:24:14;5.30;;;2.40;;
2622;SDS011;1321;48.690;9.022;2024-03-29T09:26:42;2.33;;;2.00;;
2622;SDS011;1321;48.690;9.022;2024-03-29T09:29:09;2.40;;;2.03;;
2622;SDS011;1321;48.690;9.022;2024-03-29T09:31:39;4.00;;;1.50;;
2622;SDS011;1321;48.690;9.022;2024-03-29T09:34:06;1.80;;;1.70;;
2622;SDS011;1321;48.690;9.022;2024-03-29T09:36:34;2.00;;;1.90;;
2622;SDS011;1321;48.690;9.022;2024-03-29T09:39:02;2.10;;;1.90;;
2622;SDS011;1321;48.690;9.022;2024-03-29T09:41:29;2.80;;;2.60;;
2622;SDS011;1321;48.690;9.022;2024-03-29T09:44:00;2.30;;;2.10;;
2622;SDS011;1321;48.690;9.022;2024-03-29T09:46:30;1.90;;;1.80;;
2622;SDS011;1321;48.690;9.022;2024-03-29T09:48:59;2.00;;;1.90;;
2622;SDS011;1321;48.690;9.022;2024-03-29T09:51:30;3.20;;;2.30;;
2622;SDS011;1321;48.690;9.022;2024-03-29T09:53:58;3.60;;;3.40;;
2622;SDS011;1321;48.690;9.022;2024-03-29T09:56:26;2.33;;;2.20;;
2622;SDS011;1321;48.690;9.022;2024-03-29T09:58:55;2.53;;;2.37;;
2622;SDS011;1321;48.690;9.022;2024-03-29T10:01:23;2.53;;;2.43;;
2622;SDS011;1321;48.690;9.022;2024-03-29T10:03:51;2.33;;;2.13;;
2622;SDS011;1321;48.690;9.022;2024-03-29T10:06:23;3.10;;;2.90;;
2622;SDS011;1321;48.690;9.022;2024-03-29T10:08:51;2.83;;;2.67;;
2622;SDS011;1321;48.690;9.022;2024-03-29T10:11:22;2.20;;;2.10;;
2622;SDS011;1321;48.690;9.022;2024-03-29T10:13:50;4.10;;;3.80;;
2622;SDS011;1321;48.690;9.022;2024-03-29T10:16:18;3.20;;;3.00;;
2622;SDS011;1321;48.690;9.022;2024-03-29T10:18:47;2.87;;;2.67;;
2622;SDS011;1321;48.690;9.022;2024-03-29T10:21:14;3.80;;;3.60;;
2622;SDS011;1321;48.690;9.022;2024-03-29T10:23:43;3.30;;;3.10;;
2622;SDS011;1321;48.690;9.022;2024-03-29T10:26:13;3.03;;;2.80;;
2622;SDS011;1321;48.690;9.022;2024-03-29T10:28:40;2.60;;;2.50;;
2622;SDS011;1321;48.690;9.022;2024-03-29T10:31:09;2.60;;;2.40;;
2622;SDS011;1321;48.690;9.022;2024-03-29T10:33:41;2.10;;;2.00;;
2622;SDS011;1321;48.690;9.022;2024-03-29T10:36:09;2.20;;;2.10;;
2622;SDS011;1321;48.690;9.022;2024-03-29T10:38:37;2.63;;;2.53;;
2622;SDS011;1321;48.690;9.022;2024-03-29T10:41:06;2.60;;;2.50;;
2622;SDS011;1321;48.690;9.022;2024-03-29T10:43:34;2.70;;;2.50;;
2622;SDS011;1321;48.690;9.022;2024-03-29T10:46:02;2.67;;;2.57;;
2622;SDS011;1321;48.690;9.022;2024-03-29T10:48:31;2.73;;;2.63;;
2622;SDS011;1321;48.690;9.022;2024-03-29T10:50:58;2.77;;;2.67;;
2622;SDS011;1321;48.690;9.022;2024-03-29T10:53:26;2.80;;;2.53;;
2622;SDS011;1321;48.690;9.022;2024-03-29T10:55:54;2.23;;;2.13;;
2622;SDS011;1321;48.690;9.022;2024-03-29T10:58:29;2.70;;;2.60;;
2622;SDS011;1321;48.690;9.022;2024-03-29T11:00:57;2.60;;;2.50;;
2622;SDS011;1321;48.690;9.022;2024-03-29T11:03:28;3.27;;;3.07;;
2622;SDS011;1321;48.690;9.022;2024-03-29T11:06:03;2.70;;;2.60;;
2622;SDS011;1321;48.690;9.022;2024-03-29T11:08:32;3.13;;;3.03;;
2622;SDS011;1321;48.690;9.022;2024-03-29T11:11:04;4.33;;;3.93;;
2622;SDS011;1321;48.690;9.022;2024-03-29T11:13:37;2.53;;;2.43;;
2622;SDS011;1321;48.690;9.022;2024-03-29T11:16:14;2.50;;;2.40;;
2622;SDS011;1321;48.690;9.022;2024-03-29T11:18:42;2.80;;;2.60;;
2622;SDS011;1321;48.690;9.022;2024-03-29T11:21:12;2.50;;;2.40;;
2622;SDS011;1321;48.690;9.022;2024-03-29T11:23:47;3.17;;;3.07;;
2622;SDS011;1321;48.690;9.022;2024-03-29T11:26:15;3.63;;;3.50;;
2622;SDS011;1321;48.690;9.022;2024-03-29T11:28:48;3.47;;;3.37;;
2622;SDS011;1321;48.690;9.022;2024-03-29T11:31:17;3.60;;;3.40;;
2622;SDS011;1321;48.690;9.022;2024-03-29T11:33:48;4.10;;;4.00;;
2622;SDS011;1321;48.690;9.022;2024-03-29T11:36:18;3.00;;;2.90;;
2622;SDS011;1321;48.690;9.022;2024-03-29T11:38:47;3.00;;;2.90;;
2622;SDS011;1321;48.690;9.022;2024-03-29T11:41:16;2.77;;;2.67;;
2622;SDS011;1321;48.690;9.022;2024-03-29T11:43:44;2.30;;;2.20;;
2622;SDS011;1321;48.690;9.022;2024-03-29T11:46:14;3.23;;;3.03;;
2622;SDS011;1321;48.690;9.022;2024-03-29T11:48:42;2.97;;;2.87;;
2622;SDS011;1321;48.690;9.022;2024-03-29T11:51:11;2.33;;;2.23;;
2622;SDS011;1321;48.690;9.022;2024-03-29T11:53:40;3.10;;;3.00;;
2622;SDS011;1321;48.690;9.022;2024-03-29T11:56:07;3.47;;;3.17;;
2622;SDS011;1321;48.690;9.022;2024-03-29T11:58:37;2.13;;;2.03;;
2622;SDS011;1321;48.690;9.022;2024-03-29T12:01:04;3.17;;;2.20;;
2622;SDS011;1321;48.690;9.022;2024-03-29T12:03:37;2.20;;;2.10;;
2622;SDS011;1321;48.690;9.022;2024-03-29T12:06:05;2.00;;;1.90;;
2622;SDS011;1321;48.690;9.022;2024-03-29T12:08:34;2.10;;;2.00;;
2622;SDS011;1321;48.690;9.022;2024-03-29T12:11:02;2.10;;;2.00;;
2622;SDS011;1321;48.690;9.022;2024-03-29T12:13:30;1.93;;;1.83;;
2622;SDS011;1321;48.690;9.022;2024-03-29T12:15:58;2.00;;;1.90;;
2622;SDS011;1321;48.690;9.022;2024-03-29T12:18:26;2.13;;;2.00;;
2622;SDS011;1321;48.690;9.022;2024-03-29T12:20:57;1.53;;;1.53;;
2622;SDS011;1321;48.690;9.022;2024-03-29T12:23:24;1.60;;;1.50;;
2622;SDS011;1321;48.690;9.022;2024-03-29T12:25:53;1.70;;;1.60;;
2622;SDS011;1321;48.690;9.022;2024-03-29T12:28:22;1.93;;;1.83;;
2622;SDS011;1321;48.690;9.022;2024-03-29T12:30:50;2.40;;;2.30;;
2622;SDS011;1321;48.690;9.022;2024-03-29T12:33:18;3.43;;;2.60;;
2622;SDS011;1321;48.690;9.022;2024-03-29T12:35:46;1.40;;;1.40;;
2622;SDS011;1321;48.690;9.022;2024-03-29T12:38:17;1.83;;;1.73;;
2622;SDS011;1321;48.690;9.022;2024-03-29T12:40:45;1.50;;;1.50;;
2622;SDS011;1321;48.690;9.022;2024-03-29T12:43:14;1.80;;;1.70;;
2622;SDS011;1321;48.690;9.022;2024-03-29T12:45:45;2.40;;;2.30;;
2622;SDS011;1321;48.690;9.022;2024-03-29T12:48:14;2.00;;;1.70;;
2622;SDS011;1321;48.690;9.022;2024-03-29T12:50:44;1.70;;;1.60;;
2622;SDS011;1321;48.690;9.022;2024-03-29T12:53:12;1.60;;;1.50;;
2622;SDS011;1321;48.690;9.022;2024-03-29T12:55:42;1.80;;;1.70;;
2622;SDS011;1321;48.690;9.022;2024-03-29T12:58:11;1.90;;;1.80;;
2622;SDS011;1321;48.690;9.022;2024-03-29T13:00:39;1.80;;;1.80;;
2622;SDS011;1321;48.690;9.022;2024-03-29T13:03:07;1.90;;;1.80;;
2622;SDS011;1321;48.690;9.022;2024-03-29T13:05:34;2.13;;;2.03;;
2622;SDS011;1321;48.690;9.022;2024-03-29T13:08:06;1.70;;;1.70;;
2622;SDS011;1321;48.690;9.022;2024-03-29T13:10:35;1.70;;;1.60;;
2622;SDS011;1321;48.690;9.022;2024-03-29T13:13:05;1.80;;;1.70;;
2622;SDS011;1321;48.690;9.022;2024-03-29T13:15:34;1.70;;;1.60;;
2622;SDS011;1321;48.690;9.022;2024-03-29T13:18:02;2.00;;;1.80;;
2622;SDS011;1321;48.690;9.022;2024-03-29T13:20:31;1.80;;;1.70;;
2622;SDS011;1321;48.690;9.022;2024-03-29T13:23:02;1.70;;;1.60;;
2622;SDS011;1321;48.690;9.022;2024-03-29T13:25:29;1.67;;;1.67;;
2622;SDS011;1321;48.690;9.022;2024-03-29T13:27:57;1.80;;;1.70;;
2622;SDS011;1321;48.690;9.022;2024-03-29T13:30:26;1.70;;;1.60;;
2622;SDS011;1321;48.690;9.022;2024-03-29T13:32:54;1.83;;;1.60;;
2622;SDS011;1321;48.690;9.022;2024-03-29T13:35:22;1.93;;;1.93;;
2622;SDS011;1321;48.690;9.022;2024-03-29T13:37:50;1.70;;;1.70;;
2622;SDS011;1321;48.690;9.022;2024-03-29T13:40:19;2.20;;;2.10;;
2622;SDS011;1321;48.690;9.022;2024-03-29T13:42:48;1.70;;;1.60;;
2622;SDS011;1321;48.690;9.022;2024-03-29T13:45:15;1.70;;;1.60;;
2622;SDS011;1321;48.690;9.022;2024-03-29T13:47:44;1.60;;;1.60;;
2622;SDS011;1321;48.690;9.022;2024-03-29T13:50:12;1.90;;;1.70;;
2622;SDS011;1321;48.690;9.022;2024-03-29T13:52:41;1.80;;;1.70;;
2622;SDS011;1321;48.690;9.022;2024-03-29T13:55:09;1.87;;;1.87;;
2622;SDS011;1321;48.690;9.022;2024-03-29T13:57:37;1.67;;;1.60;;
2622;SDS011;1321;48.690;9.022;2024-03-29T14:00:05;1.60;;;1.60;;
2622;SDS011;1321;48.690;9.022;2024-03-29T14:02:33;1.80;;;1.70;;
2622;SDS011;1321;48.690;9.022;2024-03-29T14:05:01;1.90;;;1.80;;
2622;SDS011;1321;48.690;9.022;2024-03-29T14:07:28;1.60;;;1.60;;
2622;SDS011;1321;48.690;9.022;2024-03-29T14:09:56;1.60;;;1.60;;
2622;SDS011;1321;48.690;9.022;2024-03-29T14:12:24;1.60;;;1.60;;
2622;SDS011;1321;48.690;9.022;2024-03-29T14:14:51;1.60;;;1.60;;
2622;SDS011;1321;48.690;9.022;2024-03-29T14:17:18;1.60;;;1.50;;
2622;SDS011;1321;48.690;9.022;2024-03-29T14:19:46;1.97;;;1.87;;
2622;SDS011;1321;48.690;9.022;2024-03-29T14:22:16;2.10;;;1.80;;
2622;SDS011;1321;48.690;9.022;2024-03-29T14:24:44;2.40;;;2.30;;
2622;SDS011;1321;48.690;9.022;2024-03-29T14:27:12;1.90;;;1.80;;
2622;SDS011;1321;48.690;9.022;2024-03-29T14:29:39;1.80;;;1.70;;
2622;SDS011;1321;48.690;9.022;2024-03-29T14:32:10;2.33;;;2.13;;
2622;SDS011;1321;48.690;9.022;2024-03-29T14:34:37;1.80;;;1.80;;
2622;SDS011;1321;48.690;9.022;2024-03-29T14:37:10;1.70;;;1.60;;
2622;SDS011;1321;48.690;9.022;2024-03-29T14:39:40;1.80;;;1.70;;
2622;SDS011;1321;48.690;9.022;2024-03-29T14:42:08;1.73;;;1.63;;
2622;SDS011;1321;48.690;9.022;2024-03-29T14:44:39;1.80;;;1.70;;
2622;SDS011;1321;48.690;9.022;2024-03-29T14:47:06;2.17;;;2.07;;
2622;SDS011;1321;48.690;9.022;2024-03-29T14:49:33;1.73;;;1.70;;
2622;SDS011;1321;48.690;9.022;2024-03-29T14:52:01;1.80;;;1.70;;
2622;SDS011;1321;48.690;9.022;2024-03-29T14:54:28;1.90;;;1.80;;
2622;SDS011;1321;48.690;9.022;2024-03-29T14:56:56;1.80;;;1.70;;
2622;SDS011;1321;48.690;9.022;2024-03-29T14:59:24;1.70;;;1.60;;
2622;SDS011;1321;48.690;9.022;2024-03-29T15:01:55;1.80;;;1.70;;
2622;SDS011;1321;48.690;9.022;2024-03-29T15:04:23;1.90;;;1.70;;
2622;SDS011;1321;48.690;9.022;2024-03-29T15:06:50;2.63;;;1.50;;
2622;SDS011;1321;48.690;9.022;2024-03-29T15:09:18;1.53;;;1.53;;
2622;SDS011;1321;48.690;9.022;2024-03-29T15:11:45;1.60;;;1.60;;
2622;SDS011;1321;48.690;9.022;2024-03-29T15:14:15;1.60;;;1.53;;
2622;SDS011;1321;48.690;9.022;2024-03-29T15:16:42;1.70;;;1.60;;
2622;SDS011;1321;48.690;9.022;2024-03-29T15:19:09;1.90;;;1.80;;
2622;SDS011;1321;48.690;9.022;2024-03-29T15:21:36;1.90;;;1.60;;